EmailTwitter


Observations de surface / Royaume-Uni / EGLL (03772)

Régions: Québec | Canada | États-Unis | Europe | France | UK | Elsewhere
Station
Affichage
Infos & localisation pour EGLL (03772) | Aide pour décoder les METARs

Observations prises le 2017-06-27 à 23H50 UTC à LONDON/HEATHROW, UK (EGLL)

Etat du ciel: partiellement nuageux.

Obstacle(s) à la visibilité: pluie modérée.

Température: 15.0 Celsius

Point de rosée: 15.0 Celsius

Humidité relative: 100%

Indice Humidex: 19.

Vents: Variable à 6 km/h ou 3 noeuds.

Pression au niveau moyen de la mer: 100.10 kilopascals.

Visibilité horizontale: 2.17 milles terrestres ou 3.48 kilomètres.

Hauteur du plafond: 183 mètres ( 600 pieds ).

Observation METAR:

EGLL 272350Z VRB03KT 3500 RA SCT004 BKN006 15/15 Q1001 NOSIG=